createdAt,value
2016-12-29T00:00:47.342Z,4.01
2016-12-29T00:01:48.494Z,4.05
2016-12-29T00:02:47.902Z,4.08
2016-12-29T00:03:47.573Z,4.01
2016-12-29T00:04:48.028Z,3.96
2016-12-29T00:05:48.025Z,4.02
2016-12-29T00:06:48.558Z,4.02
2016-12-29T00:07:47.895Z,4.01
2016-12-29T00:08:47.539Z,4.01
2016-12-29T00:09:47.749Z,3.95
2016-12-29T00:10:47.406Z,4.04
2016-12-29T00:11:47.630Z,4.01
2016-12-29T00:12:47.758Z,4.04
2016-12-29T00:13:48.398Z,3.99
2016-12-29T00:14:47.379Z,4.04
2016-12-29T00:15:47.653Z,3.98
2016-12-29T00:16:47.596Z,3.94
2016-12-29T00:17:47.210Z,3.88
2016-12-29T00:18:47.430Z,3.96
2016-12-29T00:19:47.220Z,3.92
2016-12-29T00:20:48.369Z,3.92
2016-12-29T00:21:48.202Z,3.86
2016-12-29T00:22:47.898Z,3.78
2016-12-29T00:23:47.572Z,3.7
2016-12-29T00:24:47.338Z,3.7
2016-12-29T00:25:48.000Z,3.84
2016-12-29T00:26:47.893Z,3.81
2016-12-29T00:27:47.371Z,3.8
2016-12-29T00:28:48.184Z,3.92
2016-12-29T00:29:47.741Z,3.87
2016-12-29T00:30:47.704Z,3.86
2016-12-29T00:31:48.084Z,3.88
2016-12-29T00:32:48.605Z,3.92
2016-12-29T00:33:48.241Z,3.95
2016-12-29T00:34:47.800Z,3.91
2016-12-29T00:35:48.366Z,3.87
2016-12-29T00:36:48.429Z,3.84
2016-12-29T00:37:48.151Z,3.91
2016-12-29T00:38:47.926Z,3.84
2016-12-29T00:39:48.536Z,3.95
2016-12-29T00:40:48.170Z,3.88
2016-12-29T00:41:47.657Z,3.84
2016-12-29T00:42:48.059Z,3.92
2016-12-29T00:43:47.934Z,3.87
2016-12-29T00:44:47.391Z,3.87
2016-12-29T00:45:47.918Z,3.92
2016-12-29T00:46:48.043Z,3.87
2016-12-29T00:47:47.601Z,3.96
2016-12-29T00:48:47.493Z,3.98
2016-12-29T00:49:48.593Z,3.88
2016-12-29T00:50:48.059Z,3.98
2016-12-29T00:51:48.357Z,3.86
2016-12-29T00:52:47.951Z,3.86
2016-12-29T00:53:48.041Z,3.88
2016-12-29T00:54:48.346Z,3.98
2016-12-29T00:55:48.179Z,3.96
2016-12-29T00:56:47.714Z,3.99
2016-12-29T00:57:48.832Z,3.95
2016-12-29T00:58:48.117Z,3.87
2016-12-29T00:59:48.474Z,3.87
2016-12-29T01:00:48.666Z,3.87
2016-12-29T01:01:48.107Z,3.84
2016-12-29T01:02:48.466Z,3.88
2016-12-29T01:03:48.052Z,3.94
2016-12-29T01:04:48.170Z,3.91
2016-12-29T01:05:48.874Z,3.87
2016-12-29T01:06:48.178Z,3.84
2016-12-29T01:07:48.047Z,3.92
2016-12-29T01:08:48.073Z,3.84
2016-12-29T01:09:48.661Z,3.81
2016-12-29T01:10:48.089Z,3.78
2016-12-29T01:11:49.053Z,3.84
2016-12-29T01:12:48.729Z,3.73
2016-12-29T01:13:49.117Z,3.83
2016-12-29T01:14:48.587Z,3.73
2016-12-29T01:15:48.813Z,3.73
2016-12-29T01:16:49.078Z,3.74
2016-12-29T01:17:48.422Z,3.84
2016-12-29T01:18:48.081Z,3.68
2016-12-29T01:19:49.324Z,3.8
2016-12-29T01:20:48.811Z,3.77
2016-12-29T01:21:48.426Z,3.86
2016-12-29T01:22:48.876Z,3.83
2016-12-29T01:23:49.738Z,3.81
2016-12-29T01:24:49.080Z,3.83
2016-12-29T01:25:48.599Z,3.8
2016-12-29T01:26:48.595Z,3.8
2016-12-29T01:27:49.415Z,3.84
2016-12-29T01:28:48.418Z,3.81
2016-12-29T01:29:48.553Z,3.95
2016-12-29T01:30:48.391Z,3.84
2016-12-29T01:31:49.401Z,3.88
2016-12-29T01:32:49.006Z,3.84
2016-12-29T01:33:49.543Z,4.01
2016-12-29T01:34:48.787Z,4.04
2016-12-29T01:35:48.729Z,4.01
2016-12-29T01:36:48.745Z,3.99
2016-12-29T01:37:48.647Z,3.88
2016-12-29T01:38:48.711Z,3.95
2016-12-29T01:39:49.126Z,3.98
2016-12-29T01:40:49.620Z,4.01
2016-12-29T01:41:48.875Z,3.87
2016-12-29T01:42:48.821Z,3.87
2016-12-29T01:43:48.869Z,3.88
2016-12-29T01:44:49.020Z,3.92
2016-12-29T01:45:49.249Z,3.88
2016-12-29T01:46:48.818Z,3.87
2016-12-29T01:47:48.825Z,3.86
2016-12-29T01:48:49.791Z,3.86
2016-12-29T01:49:49.153Z,3.87
2016-12-29T01:50:50.309Z,3.88
2016-12-29T01:51:49.749Z,3.81
2016-12-29T01:52:48.607Z,3.7
2016-12-29T01:53:48.674Z,3.7
2016-12-29T01:54:49.750Z,3.73
2016-12-29T01:55:49.525Z,3.7
2016-12-29T01:56:49.034Z,3.7
2016-12-29T01:57:49.612Z,3.58
2016-12-29T01:58:50.113Z,3.58
2016-12-29T01:59:49.127Z,3.6
2016-12-29T02:00:48.644Z,3.5
2016-12-29T02:01:49.301Z,3.51
2016-12-29T02:02:49.283Z,3.48
2016-12-29T02:03:49.517Z,3.4
2016-12-29T02:04:49.710Z,3.47
2016-12-29T02:05:48.878Z,3.37
2016-12-29T02:06:48.924Z,3.37
2016-12-29T02:07:49.435Z,3.41
2016-12-29T02:08:49.119Z,3.34
2016-12-29T02:09:50.924Z,3.36
2016-12-29T02:10:49.064Z,3.29
2016-12-29T02:11:50.485Z,3.34
2016-12-29T02:12:49.549Z,3.26
2016-12-29T02:13:49.117Z,3.25
2016-12-29T02:14:49.761Z,3.29
2016-12-29T02:15:49.745Z,3.25
2016-12-29T02:16:49.557Z,3.28
2016-12-29T02:17:49.676Z,3.25
2016-12-29T02:18:49.357Z,3.26
2016-12-29T02:19:49.098Z,3.32
2016-12-29T02:20:49.090Z,3.31
2016-12-29T02:21:49.308Z,3.31
2016-12-29T02:22:50.016Z,3.28
2016-12-29T02:23:50.421Z,3.28
2016-12-29T02:24:49.318Z,3.29
2016-12-29T02:25:49.349Z,3.21
2016-12-29T02:26:49.607Z,3.25
2016-12-29T02:27:49.543Z,3.23
2016-12-29T02:28:49.956Z,3.26
2016-12-29T02:29:49.213Z,3.18
2016-12-29T02:30:50.580Z,3.22
2016-12-29T02:31:49.372Z,3.19
2016-12-29T02:32:50.076Z,3.16
2016-12-29T02:33:50.153Z,3.19
2016-12-29T02:34:50.172Z,3.13
2016-12-29T02:35:49.552Z,3.16
2016-12-29T02:36:49.625Z,3.19
2016-12-29T02:37:50.436Z,3.23
2016-12-29T02:38:50.213Z,3.22
2016-12-29T02:39:49.721Z,3.16
2016-12-29T02:40:49.305Z,3.14
2016-12-29T02:41:51.039Z,3.11
2016-12-29T02:42:49.691Z,3.1
2016-12-29T02:43:49.959Z,3.11
2016-12-29T02:44:50.621Z,3.13
2016-12-29T02:45:50.741Z,3.13
2016-12-29T02:46:50.319Z,3.13
2016-12-29T02:47:50.402Z,3.1
2016-12-29T02:48:49.794Z,3.14
2016-12-29T02:49:50.605Z,3.21
2016-12-29T02:50:49.911Z,3.21
2016-12-29T02:51:49.519Z,3.21
2016-12-29T02:52:50.058Z,3.19
2016-12-29T02:53:49.211Z,3.23
2016-12-29T02:54:50.787Z,3.18
2016-12-29T02:55:49.922Z,3.26
2016-12-29T02:56:50.488Z,3.22
2016-12-29T02:57:50.619Z,3.16
2016-12-29T02:58:50.255Z,3.21
2016-12-29T02:59:50.749Z,3.19
2016-12-29T03:00:50.721Z,3.26
2016-12-29T03:01:50.046Z,3.34
2016-12-29T03:02:50.237Z,3.25
2016-12-29T03:03:50.135Z,3.22
2016-12-29T03:04:49.642Z,3.26
2016-12-29T03:05:49.890Z,3.28
2016-12-29T03:06:50.038Z,3.29
2016-12-29T03:07:49.969Z,3.34
2016-12-29T03:08:51.367Z,3.26
2016-12-29T03:09:50.059Z,3.31
2016-12-29T03:10:50.271Z,3.31
2016-12-29T03:11:49.910Z,3.29
2016-12-29T03:12:49.637Z,3.28
2016-12-29T03:13:50.276Z,3.31
2016-12-29T03:14:50.920Z,3.29
2016-12-29T03:15:49.987Z,3.32
2016-12-29T03:16:50.436Z,3.36
2016-12-29T03:17:50.395Z,3.42
2016-12-29T03:18:50.139Z,3.42
2016-12-29T03:19:49.893Z,3.37
2016-12-29T03:20:50.027Z,3.31
2016-12-29T03:21:49.507Z,3.34
2016-12-29T03:22:50.727Z,3.44
2016-12-29T03:23:50.733Z,3.47
2016-12-29T03:24:50.398Z,3.42
2016-12-29T03:25:50.344Z,3.45
2016-12-29T03:26:50.198Z,3.45
2016-12-29T03:27:50.593Z,3.42
2016-12-29T03:28:51.388Z,3.4
2016-12-29T03:29:49.975Z,3.32
2016-12-29T03:30:50.891Z,3.4
2016-12-29T03:31:49.944Z,3.29
2016-12-29T03:32:50.319Z,3.34
2016-12-29T03:33:50.325Z,3.44
2016-12-29T03:34:50.258Z,3.37
2016-12-29T03:35:50.282Z,3.32
2016-12-29T03:36:49.909Z,3.32
2016-12-29T03:37:50.363Z,3.42
2016-12-29T03:38:50.225Z,3.31
2016-12-29T03:39:51.239Z,3.4
2016-12-29T03:40:50.097Z,3.28
2016-12-29T03:41:51.172Z,3.42
2016-12-29T03:42:49.969Z,3.36
2016-12-29T03:43:50.875Z,3.36
2016-12-29T03:44:50.240Z,3.25
2016-12-29T03:45:50.022Z,3.32
2016-12-29T03:46:50.514Z,3.29
2016-12-29T03:47:50.194Z,3.29
2016-12-29T03:48:50.695Z,3.34
2016-12-29T03:49:50.642Z,3.32
2016-12-29T03:50:50.743Z,3.23
2016-12-29T03:51:50.486Z,3.29
2016-12-29T03:52:50.558Z,3.29
2016-12-29T03:53:51.207Z,3.31
2016-12-29T03:54:51.069Z,3.4
2016-12-29T03:55:51.599Z,3.44
2016-12-29T03:56:50.771Z,3.29
2016-12-29T03:57:51.373Z,3.29
2016-12-29T03:58:51.593Z,3.31
2016-12-29T03:59:51.135Z,3.4
2016-12-29T04:00:50.630Z,3.37
2016-12-29T04:01:51.118Z,3.44
2016-12-29T04:02:50.385Z,3.45
2016-12-29T04:03:50.764Z,3.41
2016-12-29T04:04:51.315Z,3.36
2016-12-29T04:05:51.095Z,3.4
2016-12-29T04:06:50.987Z,3.34
2016-12-29T04:07:50.632Z,3.42
2016-12-29T04:08:50.921Z,3.45
2016-12-29T04:09:51.554Z,3.42
2016-12-29T04:10:50.267Z,3.44
2016-12-29T04:11:50.929Z,3.44
2016-12-29T04:12:51.439Z,3.41
2016-12-29T04:13:50.642Z,3.45
2016-12-29T04:14:50.800Z,3.41
2016-12-29T04:15:50.734Z,3.34
2016-12-29T04:16:50.677Z,3.4
2016-12-29T04:17:51.407Z,3.4
2016-12-29T04:18:51.018Z,3.32
2016-12-29T04:19:51.244Z,3.4
2016-12-29T04:20:51.562Z,3.4
2016-12-29T04:21:51.388Z,3.34
2016-12-29T04:22:51.397Z,3.45
2016-12-29T04:23:51.827Z,3.47
2016-12-29T04:24:51.320Z,3.48
2016-12-29T04:25:51.752Z,3.4
2016-12-29T04:26:50.698Z,3.36
2016-12-29T04:27:50.872Z,3.29
2016-12-29T04:28:52.026Z,3.34
2016-12-29T04:29:50.865Z,3.26
2016-12-29T04:30:50.889Z,3.22
2016-12-29T04:31:51.656Z,3.21
2016-12-29T04:32:51.058Z,3.19
2016-12-29T04:33:51.691Z,3.11
2016-12-29T04:34:52.786Z,3.11
2016-12-29T04:35:51.644Z,3.03
2016-12-29T04:36:50.840Z,2.92
2016-12-29T04:37:51.092Z,2.95
2016-12-29T04:38:50.832Z,2.89
2016-12-29T04:39:51.039Z,2.83
2016-12-29T04:40:51.412Z,2.77
2016-12-29T04:41:51.771Z,2.49
2016-12-29T04:42:51.080Z,2.6
2016-12-29T04:43:50.717Z,2.61
2016-12-29T04:44:51.258Z,2.42
2016-12-29T04:45:51.312Z,2.39
2016-12-29T04:46:51.009Z,2.25
2016-12-29T04:47:51.317Z,2.18
2016-12-29T04:48:51.650Z,2.14
2016-12-29T04:49:51.035Z,2
2016-12-29T04:50:51.307Z,1.89
2016-12-29T04:51:51.217Z,1.84
2016-12-29T04:52:51.086Z,1.85
2016-12-29T04:53:51.957Z,1.87
2016-12-29T04:54:51.424Z,1.97
2016-12-29T04:55:51.102Z,1.92
2016-12-29T04:56:51.129Z,2.02
2016-12-29T04:57:51.022Z,2.04
2016-12-29T04:58:52.610Z,2
2016-12-29T04:59:51.335Z,1.94
2016-12-29T05:00:51.580Z,1.8
2016-12-29T05:01:51.778Z,1.74
2016-12-29T05:02:51.594Z,1.81
2016-12-29T05:03:51.350Z,1.6
2016-12-29T05:04:51.870Z,1.73
2016-12-29T05:05:52.517Z,1.63
2016-12-29T05:06:51.359Z,1.66
2016-12-29T05:07:52.455Z,1.56
2016-12-29T05:08:52.023Z,1.52
2016-12-29T05:09:51.760Z,1.38
2016-12-29T05:10:51.523Z,1.42
2016-12-29T05:11:51.335Z,1.34
2016-12-29T05:12:51.824Z,1.37
2016-12-29T05:13:51.486Z,1.38
2016-12-29T05:14:51.591Z,1.2
2016-12-29T05:15:51.264Z,1.31
2016-12-29T05:16:51.791Z,1.12
2016-12-29T05:17:51.398Z,1.23
2016-12-29T05:18:51.734Z,1.17
2016-12-29T05:19:51.133Z,1.2
2016-12-29T05:20:54.228Z,1.14
2016-12-29T05:21:52.991Z,1.12
2016-12-29T05:22:52.363Z,1.04
2016-12-29T05:23:53.320Z,0.96
2016-12-29T05:24:53.121Z,0.99
2016-12-29T05:25:53.253Z,1.01
2016-12-29T05:26:53.311Z,0.87
2016-12-29T05:27:53.468Z,0.86
2016-12-29T05:28:53.668Z,0.74
2016-12-29T05:29:53.079Z,0.74
2016-12-29T05:30:53.054Z,0.73
2016-12-29T05:31:53.000Z,0.63
2016-12-29T05:32:52.652Z,0.69
2016-12-29T05:33:54.458Z,0.6
2016-12-29T05:34:53.920Z,0.47
2016-12-29T05:35:53.237Z,0.62
2016-12-29T05:36:54.432Z,0.69
2016-12-29T05:37:53.967Z,0.52
2016-12-29T05:38:54.303Z,0.55
2016-12-29T05:39:53.475Z,0.58
2016-12-29T05:40:52.992Z,0.47
2016-12-29T05:41:52.766Z,0.44
2016-12-29T05:42:55.114Z,0.49
2016-12-29T05:43:53.165Z,0.39
2016-12-29T05:44:54.050Z,0.4
2016-12-29T05:45:54.461Z,0.34
2016-12-29T05:46:54.016Z,0.29
2016-12-29T05:47:55.439Z,0.19
2016-12-29T05:48:52.907Z,0.18
2016-12-29T05:49:53.786Z,0.01
2016-12-29T05:50:53.200Z,-0.18
2016-12-29T05:51:53.037Z,-0.18
2016-12-29T05:52:53.365Z,-0.17
2016-12-29T05:53:52.815Z,-0.17
2016-12-29T05:54:52.992Z,-0.25
2016-12-29T05:55:53.425Z,-0.14
2016-12-29T05:56:52.344Z,-0.17
2016-12-29T05:57:53.923Z,-0.1
2016-12-29T05:58:53.530Z,-0.15
2016-12-29T05:59:54.901Z,-0.14
2016-12-29T06:00:53.248Z,-0.21
2016-12-29T06:01:53.275Z,-0.31
2016-12-29T06:02:52.993Z,-0.15
2016-12-29T06:03:52.886Z,-0.15
2016-12-29T06:04:53.522Z,-0.31
2016-12-29T06:05:53.876Z,-0.26
2016-12-29T06:06:53.929Z,-0.26
2016-12-29T06:07:53.464Z,-0.32
2016-12-29T06:08:53.543Z,-0.34
2016-12-29T06:09:53.865Z,-0.5
2016-12-29T06:10:53.110Z,-0.56
2016-12-29T06:11:53.854Z,-0.54
2016-12-29T06:12:53.290Z,-0.67
2016-12-29T06:13:53.195Z,-0.62
2016-12-29T06:14:54.059Z,-0.64
2016-12-29T06:15:54.763Z,-0.65
2016-12-29T06:16:53.091Z,-0.74
2016-12-29T06:17:55.766Z,-0.75
2016-12-29T06:18:54.602Z,-0.7
2016-12-29T06:19:55.112Z,-0.64
2016-12-29T06:20:53.758Z,-0.65
2016-12-29T06:21:53.153Z,-0.56
2016-12-29T06:22:54.637Z,-0.64
2016-12-29T06:23:54.248Z,-0.72
2016-12-29T06:24:53.631Z,-0.68
2016-12-29T06:25:54.280Z,-0.71
2016-12-29T06:26:53.035Z,-0.7
2016-12-29T06:27:53.247Z,-0.83
2016-12-29T06:28:54.156Z,-0.96
2016-12-29T06:29:55.329Z,-0.97
2016-12-29T06:32:53.506Z,-1.05
2016-12-29T06:33:52.460Z,-1.05
2016-12-29T06:34:53.931Z,-1.08
2016-12-29T06:35:53.662Z,-1.02
2016-12-29T06:36:53.963Z,-1.11
2016-12-29T06:37:55.411Z,-1.12
2016-12-29T06:38:54.308Z,-1.2
2016-12-29T06:39:54.337Z,-1.08
2016-12-29T06:40:52.875Z,-1.08
2016-12-29T06:41:53.048Z,-1.08
2016-12-29T06:42:55.048Z,-1.14
2016-12-29T06:43:54.233Z,-1.08
2016-12-29T06:44:54.799Z,-1.22
2016-12-29T06:45:52.986Z,-1.15
2016-12-29T06:46:52.892Z,-1.37
2016-12-29T06:47:53.620Z,-1.43
2016-12-29T06:48:53.243Z,-1.5
2016-12-29T06:49:53.130Z,-1.5
2016-12-29T06:50:53.337Z,-1.62
2016-12-29T06:51:52.776Z,-1.61
2016-12-29T06:52:53.015Z,-1.66
2016-12-29T06:53:53.551Z,-1.64
2016-12-29T06:54:53.234Z,-1.61
2016-12-29T06:55:52.336Z,-1.71
2016-12-29T06:56:52.698Z,-1.61
2016-12-29T06:57:53.740Z,-1.74
2016-12-29T06:58:52.353Z,-1.69
2016-12-29T06:59:52.883Z,-1.69
2016-12-29T07:00:52.583Z,-1.71
2016-12-29T07:01:53.286Z,-1.71
2016-12-29T07:02:53.406Z,-1.8
2016-12-29T07:03:53.416Z,-1.92
2016-12-29T07:04:52.820Z,-1.97
2016-12-29T07:05:52.650Z,-1.98
2016-12-29T07:06:53.380Z,-2
2016-12-29T07:07:52.447Z,-1.98
2016-12-29T07:08:53.591Z,-1.97
2016-12-29T07:09:52.720Z,-2
2016-12-29T07:10:53.529Z,-1.89
2016-12-29T07:11:52.720Z,-2
2016-12-29T07:12:52.583Z,-1.84
2016-12-29T07:13:52.567Z,-1.87
2016-12-29T07:14:52.786Z,-1.9
2016-12-29T07:15:53.753Z,-1.74
2016-12-29T07:16:52.859Z,-1.61
2016-12-29T07:17:53.050Z,-1.69
2016-12-29T07:18:52.725Z,-1.66
2016-12-29T07:19:52.915Z,-1.77
2016-12-29T07:20:52.671Z,-1.9
2016-12-29T07:21:52.844Z,-1.98
2016-12-29T07:22:53.152Z,-2.02
2016-12-29T07:23:53.323Z,-2.05
2016-12-29T07:24:53.276Z,-2.21
2016-12-29T07:25:53.097Z,-2.3
2016-12-29T07:26:53.672Z,-2.16
2016-12-29T07:27:53.218Z,-2.04
2016-12-29T07:28:53.016Z,-2.15
2016-12-29T07:29:53.688Z,-2.08
2016-12-29T07:30:52.907Z,-2.02
2016-12-29T07:31:52.941Z,-2.07
2016-12-29T07:32:54.049Z,-2.22
2016-12-29T07:33:56.399Z,-2.04
2016-12-29T07:34:54.318Z,-1.9
2016-12-29T07:35:53.218Z,-1.74
2016-12-29T07:36:54.130Z,-1.58
2016-12-29T07:37:53.983Z,-1.44
2016-12-29T07:38:53.626Z,-1.17
2016-12-29T07:39:53.678Z,-1.12
2016-12-29T07:40:53.844Z,-1.26
2016-12-29T07:41:53.299Z,-1.37
2016-12-29T07:42:53.787Z,-1.38
2016-12-29T07:43:53.580Z,-1.38
2016-12-29T07:44:54.067Z,-1.43
2016-12-29T07:45:53.370Z,-1.5
2016-12-29T07:46:54.252Z,-1.56
2016-12-29T07:47:53.593Z,-1.59
2016-12-29T07:48:53.811Z,-1.66
2016-12-29T07:49:53.538Z,-1.83
2016-12-29T07:50:53.866Z,-1.87
2016-12-29T07:51:53.996Z,-1.86
2016-12-29T07:52:53.358Z,-1.8
2016-12-29T07:55:14.777Z,-1.95
2016-12-29T23:00:45.271Z,-1.82
2016-12-29T23:01:45.199Z,-1.71
2016-12-29T23:02:45.636Z,-1.65
2016-12-29T23:03:46.200Z,-1.65
2016-12-29T23:04:45.189Z,-1.58
2016-12-29T23:05:45.123Z,-1.59
2016-12-29T23:06:45.588Z,-1.61
2016-12-29T23:07:45.423Z,-1.56
2016-12-29T23:08:45.198Z,-1.47
2016-12-29T23:09:45.105Z,-1.46
2016-12-29T23:10:45.639Z,-1.37
2016-12-29T23:11:45.421Z,-1.37
2016-12-29T23:12:45.692Z,-1.44
2016-12-29T23:13:45.416Z,-1.38
2016-12-29T23:14:45.074Z,-1.44
2016-12-29T23:15:45.410Z,-1.38
2016-12-29T23:16:45.514Z,-1.35
2016-12-29T23:17:45.172Z,-1.38
2016-12-29T23:18:46.608Z,-1.4
2016-12-29T23:19:45.989Z,-1.5
2016-12-29T23:20:45.933Z,-1.5
2016-12-29T23:21:45.283Z,-1.47
2016-12-29T23:22:45.735Z,-1.46
2016-12-29T23:23:46.341Z,-1.5
2016-12-29T23:24:45.196Z,-1.58
2016-12-29T23:25:45.827Z,-1.44
2016-12-29T23:26:45.687Z,-1.58
2016-12-29T23:27:45.898Z,-1.53
2016-12-29T23:28:45.595Z,-1.44
2016-12-29T23:29:45.276Z,-1.43
2016-12-29T23:30:45.648Z,-1.35
2016-12-29T23:31:45.761Z,-1.35
2016-12-29T23:32:46.029Z,-1.38
2016-12-29T23:33:45.282Z,-1.26
2016-12-29T23:34:45.835Z,-1.27
2016-12-29T23:35:45.167Z,-1.29
2016-12-29T23:36:45.656Z,-1.29
2016-12-29T23:37:45.388Z,-1.27
2016-12-29T23:38:46.630Z,-1.19
2016-12-29T23:39:45.193Z,-1.02
2016-12-29T23:40:46.169Z,-1.04
2016-12-29T23:41:45.425Z,-1.11
2016-12-29T23:42:45.647Z,-1.08
2016-12-29T23:43:46.269Z,-1.04
2016-12-29T23:44:45.137Z,-1.05
2016-12-29T23:45:45.742Z,-0.96
2016-12-29T23:46:46.207Z,-0.97
2016-12-29T23:47:45.572Z,-1.01
2016-12-29T23:48:45.791Z,-1.05
2016-12-29T23:49:46.637Z,-0.91
2016-12-29T23:50:46.329Z,-1.01
2016-12-29T23:51:45.721Z,-0.85
2016-12-29T23:52:46.292Z,-0.9
2016-12-29T23:53:45.495Z,-0.96
2016-12-29T23:54:45.697Z,-0.97
2016-12-29T23:55:46.319Z,-0.96
2016-12-29T23:56:45.593Z,-0.97
2016-12-29T23:57:46.249Z,-0.99
2016-12-29T23:58:46.738Z,-0.91
2016-12-29T23:59:45.647Z,-0.8
